Terminal Aerodrome Forecast
Issued by NWS

Home | Current Version | Previous Version | Text Only | Print | Product List | Glossary On
Versions: 1 2 3 4 5 6 7 8 9 10 11 12 13 14
000
FTUS45 KGJT 272334
TAFASE
TAF
KASE 272334Z 2800/2824 27009KT P6SM FEW250
      TEMPO 2800/2802 28010G20KT
     FM280200 24007KT P6SM FEW250
     FM281100 18005KT P6SM FEW200
     FM281400 03004KT P6SM FEW250
     FM281700 34009KT P6SM FEW250
     FM282000 29013G21KT P6SM SCT200=

USA.gov is the U.S. government's official web portal to all federal, state and local government web resources and services.